Latest METARs, TAFs and NOTAMs for LIRQ


---------------------------------------------------------------------------
	(OBSERVATIONS)
LIRQ 230850Z 17004KT 140V220 9999 SCT025 26/19 Q1019=
LIRQ 230820Z 14003KT 070V210 9999 FEW027 25/19 Q1019=
LIRQ 230750Z VRB01KT 9999 SCT030 23/19 Q1019=
LIRQ 230720Z VRB01KT 9999 SCT030 23/19 Q1019=
LIRQ 230650Z VRB01KT 9999 FEW020 21/18 Q1019=
LIRQ 230620Z VRB01KT 9999 SCT020 19/18 Q1019=
---------------------------------------------------------------------------
	(FC)
Sorry, FC For LIRQ Not Found
---------------------------------------------------------------------------
	(TERMINAL AREA FORECAST)
LIRQ 230500Z 2306/2406 VRB05KT CAVOK=
---------------------------------------------------------------------------
	(NOTAMS)


LIRQ B2184/17 REF AOC TYPE B NR RQ 3/3 NEW OBSTACLE ERECTED BUILDING
    PENETRATING TAKE-OFF CLIMB SURFACE RWY05 (IN CURVE) POINTS
    PSN COORD (WGS-84): - 434929.7N 0111314.4E - 434928.3N 0111316.0E
    - 434929.2N 0111317.1E - 434930.4N 0111315.5E - 434929.7N
    0111314.4E MAX ELEV AGL 16.6M/54.5FT MAX ELEV AMSL 75.1M/246.4FT
    ICAO SIGNAL UNPROVIDED. 03 MAY 08:27 2017 UNTIL PERM. CREATED:
    03 MAY 08:27 2017

LIRQ B3960/18 EDGE LIGHTS ON APRON 100, 200 AND 300 UNSERVICEABLE
    DUE TO WIP REF AIP AD 2 LIRQ 2-5. 28 JUN 21:51 2018 UNTIL
    24 SEP 22:59 2018 ESTIMATED. CREATED: 28 JUN 21:52 2018

LIRQ B4297/18 ACFT STANDS 201, 203 AND 206 MAX ACFT ALLOWED TYPE
    GLEX/RJ85. REF AIP AD 2 LIRQ 2-7. 17 JUL 08:47 2018 UNTIL
    14 OCT 21:59 2018 ESTIMATED. CREATED: 17 JUL 08:48 2018

LIRQ B4522/18 LDG OPS FOR RWY23 AVBL AS FLW: -IFR TFC NOT ALLOWED
    -VFR TFC ALLOWED WITH HEL OR LOCAL AEROCLUB ACFT ONLY REF
    AIP AD 2 LIRQ 2-1 AND 1-12. DAILY SR-SS, 27 JUL 14:49 2018
    UNTIL 24 OCT 22:59 2018 ESTIMATED. CREATED: 27 JUL 14:49
    2018

LIRQ B4553/18 CIRCLING RWY 23 TEMPORARILY NOT ALLOWED FOR FLW
    INSTRUMENT APPROACH PROCEDURES: - ILS Z RWY 05 CAT A/B/C
    - ILS Y RWY 05 CAT A/B/C - RNAV (GNSS) Z RWY 05 CAT A/B/C
    - RNAV (GNSS) Y RWY 05 CAT A/B/C - VOR RWY 05 CAT A/B/C -
    LOC Z RWY 05 CAT A/B/C - LOC Y RWY 05 CAT A/B/C REF AIP AD
    2 LIRQ 5. 30 JUL 08:47 2018 UNTIL 24 OCT 23:59 2018 ESTIMATED.
    CREATED: 30 JUL 08:47 2018

LIRQ B4612/18 AIP SUP S10/17 IN FORCE FROM 09 NOV 2017 WITH END
    OF VALIDITY POSTPONED TO 03 JAN 2019 2359 EST. FIRENZE/PERETOLA
    AIRPORT: ACTIVATION ON TRIAL BASIS OF NOISE ABATEMENT INITIAL
    CLIMB PROCEDURE RWY23 MODIFICATION, FOR ACFT CAT A/B/C. 01
    AUG 14:26 2018 UNTIL 29 OCT 23:00 2018 ESTIMATED. CREATED:
    01 AUG 14:26 2018

LIRQ B4637/18 TRIGGER NOTAM-PERM AIP AIRAC AMDT 8/18 EFFECTIVE
    DATE 13 SEP 2018 FIRENZE/PERETOLA AD REVIEW OF STAR AIRAC
    IS POSTED AND AVBL ON WEBSITE WWW.ENAV.IT. 13 SEP 00:00 2018
    UNTIL 26 SEP 23:59 2018. CREATED: 02 AUG 14:52 2018

LIRQ B4747/18 REF AIP AD2 LIRQ 2-1 AERODROME CHART ICAO 'MARKING
    AIDS' DELETE AIMING POINT MARKING RWY23. 29 AUG 03:00 2018
    UNTIL PERM. CREATED: 13 AUG 10:02 2018

LIRQ B4751/18 REF AIP AD 2 LIRQ 2-1 AERODROME CHART ICAO 'MARKING
    AIDS' IMPLEMENTED TDZ MARKINGS RWY05. 29 AUG 03:00 2018 UNTIL
    PERM. CREATED: 13 AUG 11:53 2018

LIRQ B4762/18 FOLLOW CHIMNEY PENETRATING INNER HORIZONTAL SURFACE
    COMPLETELY WITHDRAWN. - PSN COORD (WGS-84): 434726.4N 0111338.1E
    - ELEV 95.0M/311.7FT AMSL REF AIP AOC TYPE B NR RQ 3/3. 14
    AUG 12:17 2018 UNTIL PERM. CREATED: 14 AUG 12:17 2018

LIRQ B4829/18 REF AIP GEN 3.5-1 'METEOROLOGICAL SERVICES' PARAGRAPH
    3.1.12 'AIRPORT METEOROLOGICAL OBSERVATION AND FORECAST/AIRPORT
    AND WIND SHEAR WARNING - ENAV SPA' REFERRING TO 'FIRENZE/PERETOLA
    - LIRQ' COLUMN 7 'OBSERVATION SITES' CHG 'ANEMOMETERS' TO
    READ 1) THR RWY05 (MAIN) 2) THR RWY23 (BACKUP) OTHER DATA
    UNCHANGED CHG 'CEILOMETERS' TO READ 1) THR RWY05 REF AIP
    AD 2 LIRQ 1-6 ITEM 15 'OTHER LIGHTING, SECONDARY POWER SUPPLY'
    BOX 2 'LDI LOCATION AND LIGHTS /ANEMOMETER LOCATION AND LIGHTS'
    ANEMOMETERS CHG TO READ: 1) 215 M AFTER THR RWY05, 228 M
    LEFT SIDE RCL, LIGHTED 2) 37 M AFTER THR RWY23, 220 M RIGHT
    SIDE RCL, LIGHTED. 20 AUG 10:45 2018 UNTIL PERM. CREATED:
    20 AUG 10:45 2018

LIRQ B5037/18 RUNWAY THRESHOLD INDENTIFICATION LIGHTS (RTIL)
    RWY05 UNSERVICEABLE. REF AIP AD 2 LIRQ 1-6. 30 AUG 09:49
    2018 UNTIL 30 SEP 23:59 2018 ESTIMATED. CREATED: 30 AUG 09:49
    2018

LIRQ B5051/18 TRIGGER NOTAM-PERM AIP AIRAC AMDT 9/18 EFFECTIVE
    DATE 11 OCT 2018 FIRENZE/PERETOLA AD AIRCRAFT PARKING DOCKING
    CHART UPDATED AIRAC IS POSTED AND AVBL ON WEBSITE WWW.ENAV.IT.
    11 OCT 00:00 2018 UNTIL 24 OCT 23:59 2018. CREATED: 30 AUG
    20:06 2018

LIRQ B5233/18 AERODROME BEACON UNSERVICEABLE REF AIP AD 2 LIRQ
    1-6. 11 SEP 06:45 2018 UNTIL 31 OCT 23:59 2018 ESTIMATED.
    CREATED: 11 SEP 06:45 2018

LIRQ B5334/18 FIRENZE TWR WILL PROVIDE, ON PILOT'S SPECIFIC REQUEST
    AND ON TRIAL BASIS, 'TAIL' AND 'CROSS' COMPONENTS OF THE
    SURFACE WIND, AS INDICATED ON LOCAL ATS DISPLAYS. 'TAIL'
    AND 'CROSS' COMPONENTS ARE RISPECTIVELY DIRECTED: - ALONG
    THE RWY CENTRE LINE, FOR THE TAIL WIND - PERPENDICULARLY
    TO THE RWY CENTRE LINE, FOR THE CROSS WIND TAIL COMPONENT
    DIRECTION CORRESPONDS TO THE DIRECTION OF RWY UTILIZATION.
    CROSS/TAIL COMPONENTS: - ARE OBTAINED FROM THE 2 MINUTES
    AVERAGE SURFACE WIND, MEASURED AS IN AIP GEN 3.5.3, PARAGRAPH
    3.1.1, POINT 'A', NOT TAKING GUSTS INTO ACCOUNT - ARE NOT
    AVAILABLE WHEN THE 2 MINUTES AVERAGE SURFACE WIND IS REPORTED
    'VRB' OR 'CALM' PILOT'S PHRASEOLOGY FOR TAIL/CROSS WIND COMPONENTS
    REQUEST IS: 'FIRENZE TWR, (AIRCRAFT IDENTIFICATION) REQUEST
    TAIL/CROSS WIND' TWR PHRASEOLOGY TO ANSWER PILOT'S REQUEST
    IS: '(AIRCRAFT IDENTIFICATION) WIND (DIRECTION) DEGREES (SPEED)
    KNOTS, TAIL/CROSS WIND (SPEED) KNOTS'. 01 OCT 00:00 2018
    UNTIL 29 DEC 23:59 2018 ESTIMATED. CREATED: 13 SEP 16:52
    2018

LIRQ B5467/18 RWY 05/23 CLOSED TO ALL TRAFFIC DUE TO WIP. REF
    AIP AD 2 LIRQ 2-1. DAILY 2159-0400, 24 SEP 21:59 2018 UNTIL
    03 OCT 04:00 2018. CREATED: 20 SEP 14:39 2018

---------------------------------------------------------------------------